createdAt,value
2019-04-14T00:01:56.677Z,76.43
2019-04-14T00:04:33.728Z,86.97
2019-04-14T00:07:03.596Z,80.33
2019-04-14T00:09:33.639Z,86.33
2019-04-14T00:12:05.845Z,83.40
2019-04-14T00:14:33.672Z,87.67
2019-04-14T00:17:02.491Z,77.67
2019-04-14T00:19:31.184Z,86.13
2019-04-14T00:22:03.243Z,90.73
2019-04-14T00:24:33.483Z,89.80
2019-04-14T00:27:02.684Z,82.23
2019-04-14T00:29:31.347Z,88.33
2019-04-14T00:32:00.905Z,78.60
2019-04-14T00:34:47.052Z,80.73
2019-04-14T00:37:27.354Z,72.37
2019-04-14T00:39:59.868Z,71.47
2019-04-14T00:42:56.423Z,78.27
2019-04-14T00:45:46.436Z,70.67
2019-04-14T00:48:15.908Z,74.93
2019-04-14T00:50:43.170Z,74.10
2019-04-14T00:53:12.208Z,76.27
2019-04-14T00:55:42.115Z,77.00
2019-04-14T00:58:10.851Z,71.97
2019-04-14T01:00:40.752Z,71.67
2019-04-14T01:03:09.248Z,74.30
2019-04-14T01:05:37.908Z,67.10
2019-04-14T01:08:07.403Z,72.57
2019-04-14T01:10:36.785Z,76.63
2019-04-14T01:13:08.447Z,73.67
2019-04-14T01:15:49.770Z,79.50
2019-04-14T01:18:06.349Z,73.87
2019-04-14T01:20:36.304Z,73.03
2019-04-14T01:23:06.230Z,73.23
2019-04-14T01:25:34.983Z,68.57
2019-04-14T01:28:04.676Z,76.60
2019-04-14T01:30:33.493Z,84.97
2019-04-14T01:33:03.248Z,81.13
2019-04-14T01:35:32.132Z,74.07
2019-04-14T01:38:01.637Z,81.53
2019-04-14T01:40:31.450Z,82.70
2019-04-14T01:43:01.578Z,76.33
2019-04-14T01:45:31.649Z,70.97
2019-04-14T01:48:01.508Z,77.80
2019-04-14T01:50:36.709Z,78.83
2019-04-14T01:53:14.228Z,79.90
2019-04-14T01:56:01.317Z,80.13
2019-04-14T01:58:36.107Z,78.30
2019-04-14T02:01:10.779Z,77.17
2019-04-14T02:03:39.447Z,80.53
2019-04-14T02:06:09.268Z,80.27
2019-04-14T02:08:37.688Z,82.00
2019-04-14T02:11:07.354Z,83.73
2019-04-14T02:13:37.462Z,84.30
2019-04-14T02:16:18.831Z,87.90
2019-04-14T02:18:36.722Z,83.07
2019-04-14T02:21:06.456Z,81.03
2019-04-14T02:23:36.470Z,86.77
2019-04-14T02:26:05.281Z,88.80
2019-04-14T02:28:35.283Z,82.00
2019-04-14T02:31:18.016Z,88.80
2019-04-14T02:34:07.328Z,88.40
2019-04-14T02:36:35.090Z,81.23
2019-04-14T02:44:04.979Z,93.33
2019-04-14T02:46:39.971Z,79.90
2019-04-14T02:54:05.025Z,83.17
2019-04-14T03:04:04.134Z,93.60
2019-04-14T03:06:33.577Z,94.53
2019-04-14T03:09:13.651Z,94.20
2019-04-14T03:11:43.873Z,99.37
2019-04-14T03:14:06.303Z,82.73
2019-04-14T03:17:11.122Z,93.87
2019-04-14T03:25:11.486Z,88.37
2019-04-14T03:27:54.735Z,90.43
2019-04-14T03:40:50.717Z,86.77
2019-04-14T03:43:11.285Z,90.07
2019-04-14T03:48:33.800Z,92.33
2019-04-14T03:50:37.808Z,88.73
2019-04-14T03:55:54.374Z,83.20
2019-04-14T03:58:20.520Z,86.17
2019-04-14T04:00:49.448Z,92.10
2019-04-14T04:03:18.136Z,90.93
2019-04-14T04:05:48.255Z,88.57
2019-04-14T04:08:17.943Z,76.30
2019-04-14T04:10:46.804Z,88.10
2019-04-14T04:13:17.188Z,95.37
2019-04-14T04:15:46.109Z,100.87
2019-04-14T04:18:19.897Z,89.10
2019-04-14T04:21:05.246Z,85.40
2019-04-14T04:23:40.297Z,88.17
2019-04-14T04:26:27.895Z,100.30
2019-04-14T04:29:20.605Z,92.07
2019-04-14T04:32:07.829Z,110.37
2019-04-14T04:34:45.207Z,86.10
2019-04-14T04:37:45.781Z,91.83
2019-04-14T04:40:20.076Z,89.40
2019-04-14T04:42:48.868Z,82.47
2019-04-14T04:45:17.556Z,95.83
2019-04-14T04:47:47.010Z,93.20
2019-04-14T04:50:15.435Z,81.17
2019-04-14T04:52:45.095Z,96.37
2019-04-14T04:55:13.817Z,89.67
2019-04-14T04:57:42.475Z,86.77
2019-04-14T05:00:11.637Z,88.00
2019-04-14T05:02:40.306Z,96.30
2019-04-14T05:05:45.311Z,86.90
2019-04-14T05:08:15.096Z,82.53
2019-04-14T05:10:52.611Z,96.70
2019-04-14T05:13:25.638Z,87.50
2019-04-14T05:15:59.819Z,92.73
2019-04-14T05:18:29.017Z,84.17
2019-04-14T05:20:57.804Z,95.83
2019-04-14T05:23:27.680Z,91.43
2019-04-14T05:25:56.527Z,91.03
2019-04-14T05:28:26.575Z,88.60
2019-04-14T05:30:56.765Z,86.83
2019-04-14T05:33:25.636Z,84.33
2019-04-14T05:35:55.665Z,71.37
2019-04-14T05:38:23.931Z,77.10
2019-04-14T05:40:53.908Z,80.40
2019-04-14T05:43:30.367Z,74.57
2019-04-14T05:45:54.394Z,74.33
2019-04-14T05:48:23.308Z,79.03
2019-04-14T05:50:53.314Z,66.17
2019-04-14T05:53:22.192Z,77.87
2019-04-14T05:55:50.859Z,66.60
2019-04-14T05:58:20.678Z,59.40
2019-04-14T06:00:50.553Z,67.10
2019-04-14T06:03:19.729Z,59.90
2019-04-14T06:05:49.430Z,67.33
2019-04-14T06:08:18.133Z,66.77
2019-04-14T06:10:46.774Z,68.33
2019-04-14T06:13:15.584Z,66.43
2019-04-14T06:15:44.289Z,66.67
2019-04-14T06:18:15.015Z,68.30
2019-04-14T06:20:43.700Z,58.70
2019-04-14T06:23:12.049Z,59.90
2019-04-14T06:25:40.744Z,66.60
2019-04-14T06:28:09.500Z,64.00
2019-04-14T06:30:57.209Z,73.40
2019-04-14T06:33:32.624Z,66.47
2019-04-14T06:36:17.808Z,58.17
2019-04-14T06:38:48.539Z,56.17
2019-04-14T06:41:19.066Z,50.90
2019-04-14T06:43:49.070Z,57.73
2019-04-14T06:46:17.651Z,63.73
2019-04-14T06:48:46.385Z,67.83
2019-04-14T06:51:15.021Z,56.87
2019-04-14T06:53:43.672Z,62.57
2019-04-14T06:56:12.374Z,65.60
2019-04-14T06:58:41.147Z,60.30
2019-04-14T07:01:09.876Z,57.30
2019-04-14T07:03:38.916Z,54.80
2019-04-14T07:06:07.636Z,49.57
2019-04-14T07:08:35.969Z,56.97
2019-04-14T07:11:04.884Z,52.73
2019-04-14T07:13:33.615Z,67.70
2019-04-14T07:16:02.350Z,54.13
2019-04-14T07:18:31.341Z,50.43
2019-04-14T07:21:00.081Z,49.90
2019-04-14T07:23:28.759Z,58.00
2019-04-14T07:25:57.574Z,52.37
2019-04-14T07:28:26.630Z,55.47
2019-04-14T07:31:26.564Z,53.70
2019-04-14T07:34:25.983Z,74.67
2019-04-14T07:37:13.700Z,54.13
2019-04-14T07:40:14.867Z,64.87
2019-04-14T07:43:05.365Z,56.13
2019-04-14T07:45:51.960Z,62.47
2019-04-14T07:48:30.860Z,56.60
2019-04-14T07:51:15.964Z,60.70
2019-04-14T07:53:50.382Z,50.27
2019-04-14T07:56:46.957Z,60.70
2019-04-14T07:59:34.671Z,50.23
2019-04-14T08:02:09.213Z,57.00
2019-04-14T08:04:42.056Z,65.70
2019-04-14T08:07:10.707Z,58.73
2019-04-14T08:09:39.411Z,57.83
2019-04-14T08:12:08.557Z,56.97
2019-04-14T08:14:37.233Z,55.27
2019-04-14T08:17:05.939Z,58.33
2019-04-14T08:19:35.003Z,55.30
2019-04-14T08:22:03.499Z,58.17
2019-04-14T08:24:32.243Z,64.70
2019-04-14T08:27:00.956Z,54.17
2019-04-14T08:29:29.620Z,61.27
2019-04-14T08:31:58.276Z,57.73
2019-04-14T08:34:26.979Z,54.23
2019-04-14T08:36:55.975Z,55.83
2019-04-14T08:39:24.753Z,66.63
2019-04-14T08:42:11.516Z,52.70
2019-04-14T08:44:44.998Z,53.30
2019-04-14T08:47:24.856Z,55.97
2019-04-14T08:49:59.977Z,54.33
2019-04-14T08:52:32.046Z,57.93
2019-04-14T08:55:18.743Z,64.13
2019-04-14T08:57:57.395Z,62.43
2019-04-14T09:00:44.202Z,56.93
2019-04-14T09:03:47.585Z,55.57
2019-04-14T09:06:20.593Z,63.13
2019-04-14T09:09:11.672Z,52.10
2019-04-14T09:11:45.055Z,57.90
2019-04-14T09:14:13.770Z,56.40
2019-04-14T09:16:42.768Z,53.70
2019-04-14T09:19:12.462Z,61.73
2019-04-14T09:21:41.169Z,53.80
2019-04-14T09:24:09.844Z,55.63
2019-04-14T09:26:38.567Z,52.90
2019-04-14T09:29:07.237Z,55.07
2019-04-14T09:31:35.910Z,58.37
2019-04-14T09:34:04.225Z,48.17
2019-04-14T09:36:32.904Z,49.40
2019-04-14T09:39:01.576Z,57.20
2019-04-14T09:41:30.309Z,55.53
2019-04-14T09:43:58.967Z,50.77
2019-04-14T09:46:27.670Z,45.77
2019-04-14T09:48:56.361Z,48.80
2019-04-14T09:51:25.096Z,50.93
2019-04-14T09:53:53.755Z,39.63
2019-04-14T09:56:22.083Z,49.73
2019-04-14T09:58:50.802Z,42.73
2019-04-14T10:01:19.886Z,40.20
2019-04-14T10:03:48.630Z,42.13
2019-04-14T10:06:17.283Z,44.07
2019-04-14T10:08:45.999Z,39.97
2019-04-14T10:11:14.298Z,42.77
2019-04-14T10:13:42.963Z,44.10
2019-04-14T10:16:11.259Z,45.50
2019-04-14T10:18:39.928Z,40.80
2019-04-14T10:21:17.327Z,42.93
2019-04-14T10:23:39.630Z,41.03
2019-04-14T10:26:08.388Z,39.23
2019-04-14T10:28:37.439Z,40.40
2019-04-14T10:31:06.097Z,44.20
2019-04-14T10:33:34.755Z,38.93
2019-04-14T10:36:03.417Z,39.60
2019-04-14T10:38:32.116Z,33.57
2019-04-14T10:41:00.883Z,42.13
2019-04-14T10:43:29.657Z,45.70
2019-04-14T10:45:58.457Z,41.73
2019-04-14T10:48:26.840Z,42.90
2019-04-14T10:50:56.172Z,36.67
2019-04-14T10:53:24.953Z,48.70
2019-04-14T10:55:53.679Z,48.80
2019-04-14T10:58:22.482Z,38.03
2019-04-14T11:00:50.851Z,39.90
2019-04-14T11:03:19.506Z,40.30
2019-04-14T11:05:55.612Z,39.97
2019-04-14T11:08:24.415Z,35.57
2019-04-14T11:10:53.127Z,41.00
2019-04-14T11:13:21.831Z,42.07
2019-04-14T11:15:50.505Z,45.13
2019-04-14T11:18:19.168Z,33.93
2019-04-14T11:20:47.553Z,41.00
2019-04-14T11:23:16.447Z,41.37
2019-04-14T11:25:45.203Z,39.47
2019-04-14T11:28:13.988Z,40.33
2019-04-14T11:30:42.731Z,45.73
2019-04-14T11:33:16.484Z,39.90
2019-04-14T11:36:01.885Z,50.53
2019-04-14T11:38:44.637Z,40.50
2019-04-14T11:41:16.612Z,43.30
2019-04-14T11:43:45.262Z,44.17
2019-04-14T11:46:14.059Z,41.07
2019-04-14T11:48:42.785Z,37.37
2019-04-14T11:51:11.540Z,45.90
2019-04-14T11:53:40.197Z,39.13
2019-04-14T11:56:09.173Z,38.50
2019-04-14T11:58:37.838Z,38.90
2019-04-14T12:01:24.749Z,39.60
2019-04-14T12:04:01.428Z,46.53
2019-04-14T12:07:01.128Z,40.03
2019-04-14T12:09:32.840Z,40.23
2019-04-14T12:12:01.184Z,41.60
2019-04-14T12:14:30.248Z,43.13
2019-04-14T12:16:59.025Z,37.80
2019-04-14T12:19:27.744Z,34.70
2019-04-14T12:22:07.778Z,38.10
2019-04-14T12:24:26.567Z,39.50
2019-04-14T12:26:54.867Z,41.73
2019-04-14T12:29:23.688Z,36.37
2019-04-14T12:31:53.100Z,39.03
2019-04-14T12:34:21.812Z,40.30
2019-04-14T12:36:50.476Z,41.23
2019-04-14T12:39:22.292Z,39.27
2019-04-14T12:41:59.914Z,41.47
2019-04-14T12:44:46.355Z,48.90
2019-04-14T12:47:39.690Z,41.10
2019-04-14T12:50:05.160Z,45.63
2019-04-14T12:52:34.276Z,40.17
2019-04-14T12:55:03.067Z,41.30
2019-04-14T12:57:39.552Z,41.13
2019-04-14T13:00:15.292Z,35.57
2019-04-14T13:02:47.057Z,40.93
2019-04-14T13:05:15.760Z,39.87
2019-04-14T13:07:44.152Z,42.73
2019-04-14T13:10:12.975Z,40.83
2019-04-14T13:12:42.257Z,45.70
2019-04-14T13:15:12.679Z,37.73
2019-04-14T13:17:41.564Z,44.57
2019-04-14T13:20:10.360Z,42.13
2019-04-14T13:22:39.098Z,38.97
2019-04-14T13:25:07.859Z,43.03
2019-04-14T13:27:37.074Z,40.23
2019-04-14T13:30:05.820Z,40.40
2019-04-14T13:32:36.439Z,39.43
2019-04-14T13:35:05.695Z,36.93
2019-04-14T13:37:34.655Z,40.33
2019-04-14T13:40:03.675Z,45.70
2019-04-14T13:42:36.932Z,39.73
2019-04-14T13:45:05.753Z,44.70
2019-04-14T13:47:34.797Z,37.43
2019-04-14T13:50:03.937Z,41.33
2019-04-14T13:52:32.336Z,36.90
2019-04-14T13:55:01.078Z,40.57
2019-04-14T13:57:29.808Z,35.93
2019-04-14T13:59:58.081Z,40.30
2019-04-14T14:02:26.868Z,36.93
2019-04-14T14:04:55.597Z,37.87
2019-04-14T14:07:24.309Z,39.07
2019-04-14T14:09:56.941Z,43.37
2019-04-14T14:12:52.599Z,39.07
2019-04-14T14:15:40.560Z,42.57
2019-04-14T14:18:31.134Z,41.90
2019-04-14T14:21:17.585Z,40.10
2019-04-14T14:23:58.716Z,40.97
2019-04-14T14:26:28.268Z,45.43
2019-04-14T14:28:57.051Z,40.50
2019-04-14T14:31:28.843Z,45.20
2019-04-14T14:33:57.615Z,42.50
2019-04-14T14:36:26.401Z,41.80
2019-04-14T14:38:55.079Z,36.93
2019-04-14T14:41:23.414Z,48.80
2019-04-14T14:43:52.151Z,49.83
2019-04-14T14:46:32.153Z,60.00
2019-04-14T14:49:08.822Z,38.07
2019-04-14T14:51:48.210Z,52.83
2019-04-14T14:54:16.933Z,43.83
2019-04-14T14:56:45.980Z,46.67
2019-04-14T14:59:14.683Z,42.80
2019-04-14T15:01:43.501Z,43.40
2019-04-14T15:04:11.792Z,40.90
2019-04-14T15:06:40.551Z,45.80
2019-04-14T15:09:09.244Z,49.27
2019-04-14T15:11:37.894Z,51.33
2019-04-14T15:14:07.613Z,42.30
2019-04-14T15:16:36.398Z,43.50
2019-04-14T15:19:05.053Z,47.57
2019-04-14T15:21:34.004Z,40.10
2019-04-14T15:24:02.712Z,38.90
2019-04-14T15:26:31.084Z,39.50
2019-04-14T15:28:59.780Z,45.67
2019-04-14T15:31:28.431Z,43.47
2019-04-14T15:33:57.212Z,47.57
2019-04-14T15:36:26.127Z,41.40
2019-04-14T15:38:54.857Z,61.60
2019-04-14T15:41:23.919Z,52.27
2019-04-14T15:43:52.601Z,52.13
2019-04-14T15:46:20.979Z,62.93
2019-04-14T15:48:49.629Z,57.97
2019-04-14T15:51:18.287Z,46.30
2019-04-14T15:53:46.983Z,44.90
2019-04-14T15:56:26.190Z,46.10
2019-04-14T15:59:09.177Z,42.17
2019-04-14T16:02:03.824Z,42.83
2019-04-14T16:04:47.380Z,44.33
2019-04-14T16:07:35.736Z,47.13
2019-04-14T16:10:25.800Z,48.10
2019-04-14T16:13:19.788Z,63.77
2019-04-14T16:16:07.528Z,48.33
2019-04-14T16:18:53.839Z,46.90
2019-04-14T16:21:22.553Z,44.47
2019-04-14T16:23:51.310Z,42.13
2019-04-14T16:26:28.232Z,47.27
2019-04-14T16:29:16.544Z,42.80
2019-04-14T16:32:22.605Z,50.80
2019-04-14T16:34:57.491Z,46.50
2019-04-14T16:37:26.275Z,48.33
2019-04-14T16:39:54.543Z,48.07
2019-04-14T16:42:23.372Z,46.73
2019-04-14T16:44:52.555Z,41.03
2019-04-14T16:47:21.673Z,44.43
2019-04-14T16:49:50.472Z,48.60
2019-04-14T16:52:41.001Z,42.83
2019-04-14T16:55:29.706Z,44.33
2019-04-14T16:58:20.127Z,42.53
2019-04-14T17:00:56.861Z,48.63
2019-04-14T17:03:25.597Z,45.00
2019-04-14T17:05:54.315Z,45.73
2019-04-14T17:08:22.664Z,43.60
2019-04-14T17:10:51.425Z,44.97
2019-04-14T17:13:20.140Z,42.10
2019-04-14T17:16:06.840Z,44.30
2019-04-14T17:18:42.312Z,45.63
2019-04-14T17:21:33.036Z,44.20
2019-04-14T17:24:20.809Z,43.33
2019-04-14T17:27:04.165Z,42.40
2019-04-14T17:29:43.948Z,43.77
2019-04-14T17:32:46.957Z,46.20
2019-04-14T17:35:24.857Z,40.10
2019-04-14T17:37:58.142Z,49.03
2019-04-14T17:40:45.860Z,41.20
2019-04-14T17:43:19.594Z,44.93
2019-04-14T17:46:07.848Z,53.20
2019-04-14T17:49:01.673Z,55.00
2019-04-14T17:51:47.857Z,41.90
2019-04-14T17:54:34.002Z,40.80
2019-04-14T17:57:15.738Z,46.70
2019-04-14T18:00:18.980Z,44.37
2019-04-14T18:03:00.265Z,50.53
2019-04-14T18:05:46.345Z,49.80
2019-04-14T18:08:27.463Z,62.80
2019-04-14T18:11:23.113Z,48.10
2019-04-14T18:14:17.023Z,51.20
2019-04-14T18:17:04.775Z,48.10
2019-04-14T18:19:58.913Z,52.97
2019-04-14T18:22:27.637Z,47.80
2019-04-14T18:24:56.332Z,54.73
2019-04-14T18:27:24.691Z,59.93
2019-04-14T18:30:01.119Z,58.23
2019-04-14T18:33:04.216Z,53.03
2019-04-14T18:35:38.035Z,51.13
2019-04-14T18:38:24.937Z,48.63
2019-04-14T18:41:18.950Z,54.77
2019-04-14T18:44:09.558Z,61.00
2019-04-14T18:46:50.441Z,52.50
2019-04-14T18:49:31.987Z,48.07
2019-04-14T18:52:10.412Z,46.47
2019-04-14T18:54:54.437Z,53.50
2019-04-14T18:57:28.583Z,58.70
2019-04-14T19:00:22.434Z,58.47
2019-04-14T19:02:51.104Z,59.27
2019-04-14T19:05:20.038Z,53.47
2019-04-14T19:07:48.797Z,49.13
2019-04-14T19:10:17.910Z,45.57
2019-04-14T19:12:58.438Z,41.27
2019-04-14T19:15:46.272Z,50.80
2019-04-14T19:18:32.823Z,53.20
2019-04-14T19:21:04.361Z,50.90
2019-04-14T19:23:33.196Z,64.53
2019-04-14T19:26:02.070Z,50.40
2019-04-14T19:28:30.494Z,49.67
2019-04-14T19:31:00.037Z,52.53
2019-04-14T19:33:28.768Z,53.03
2019-04-14T19:35:57.559Z,52.23
2019-04-14T19:38:26.332Z,54.30
2019-04-14T19:40:55.120Z,55.30
2019-04-14T19:43:24.379Z,54.37
2019-04-14T19:45:53.200Z,51.97
2019-04-14T19:48:21.593Z,54.67
2019-04-14T19:50:49.876Z,54.13
2019-04-14T19:53:18.734Z,55.50
2019-04-14T19:55:47.489Z,56.63
2019-04-14T19:58:16.234Z,51.03
2019-04-14T20:00:44.939Z,58.13
2019-04-14T20:03:13.619Z,57.80
2019-04-14T20:05:42.332Z,56.20
2019-04-14T20:08:10.987Z,57.33
2019-04-14T20:10:39.424Z,50.97
2019-04-14T20:13:08.512Z,57.27
2019-04-14T20:15:48.592Z,53.93
2019-04-14T20:18:42.703Z,55.50
2019-04-14T20:21:22.456Z,62.07
2019-04-14T20:24:00.313Z,61.80
2019-04-14T20:27:00.492Z,58.80
2019-04-14T20:29:32.480Z,58.90
2019-04-14T20:32:11.768Z,60.77
2019-04-14T20:34:40.165Z,61.53
2019-04-14T20:37:08.912Z,63.33
2019-04-14T20:39:38.008Z,61.60
2019-04-14T20:42:08.213Z,58.40
2019-04-14T20:44:37.029Z,64.40
2019-04-14T20:47:08.352Z,57.87
2019-04-14T20:49:37.322Z,68.67
2019-04-14T20:52:05.991Z,59.20
2019-04-14T20:54:34.652Z,63.20
2019-04-14T20:57:02.991Z,62.23
2019-04-14T20:59:31.658Z,65.10
2019-04-14T21:02:07.755Z,66.60
2019-04-14T21:04:58.283Z,63.90
2019-04-14T21:07:41.576Z,62.73
2019-04-14T21:10:26.489Z,64.43
2019-04-14T21:13:14.410Z,63.03
2019-04-14T21:15:50.361Z,64.30
2019-04-14T21:18:37.255Z,65.60
2019-04-14T21:21:34.121Z,56.20
2019-04-14T21:24:22.174Z,58.63
2019-04-14T21:27:08.036Z,69.80
2019-04-14T21:29:49.443Z,67.90
2019-04-14T21:32:29.808Z,63.77
2019-04-14T21:35:10.835Z,61.47
2019-04-14T21:38:10.234Z,60.70
2019-04-14T21:40:56.136Z,62.80
2019-04-14T21:43:25.968Z,66.50
2019-04-14T21:45:55.606Z,64.53
2019-04-14T21:48:31.881Z,65.60
2019-04-14T21:51:04.402Z,60.20
2019-04-14T21:53:33.693Z,58.73
2019-04-14T21:56:12.819Z,60.77
2019-04-14T21:58:46.412Z,68.87
2019-04-14T22:01:50.980Z,62.73
2019-04-14T22:04:51.625Z,68.50
2019-04-14T22:07:38.376Z,73.60
2019-04-14T22:10:17.954Z,67.77
2019-04-14T22:12:47.920Z,64.50
2019-04-14T22:15:17.014Z,64.70
2019-04-14T22:17:45.962Z,72.40
2019-04-14T22:20:15.272Z,62.43
2019-04-14T22:22:45.081Z,62.60
2019-04-14T22:25:14.314Z,59.20
2019-04-14T22:27:42.953Z,67.27
2019-04-14T22:30:21.108Z,71.80
2019-04-14T22:32:49.877Z,77.60
2019-04-14T22:35:18.868Z,65.63
2019-04-14T22:37:48.329Z,62.03
2019-04-14T22:40:19.506Z,72.50
2019-04-14T22:42:48.576Z,63.17
2019-04-14T22:45:18.075Z,66.93
2019-04-14T22:50:24.725Z,55.50
2019-04-14T22:52:55.477Z,60.63
2019-04-14T22:55:25.355Z,66.90
2019-04-14T22:57:53.847Z,71.60
2019-04-14T23:00:38.176Z,62.50
2019-04-14T23:03:19.739Z,67.60
2019-04-14T23:06:02.115Z,65.57
2019-04-14T23:08:47.640Z,68.03
2019-04-14T23:11:34.279Z,58.47
2019-04-14T23:14:17.302Z,73.83
2019-04-14T23:17:17.394Z,59.40
2019-04-14T23:19:56.675Z,67.03
2019-04-14T23:22:33.426Z,72.07
2019-04-14T23:25:02.489Z,67.80
2019-04-14T23:27:31.575Z,73.47
2019-04-14T23:30:01.033Z,73.37
2019-04-14T23:32:29.952Z,70.53
2019-04-14T23:34:59.464Z,68.30
2019-04-14T23:37:29.948Z,67.30
2019-04-14T23:40:02.038Z,73.90
2019-04-14T23:42:31.139Z,63.53
2019-04-14T23:44:59.791Z,59.90
2019-04-14T23:47:28.571Z,63.80
2019-04-14T23:49:57.689Z,68.97
2019-04-14T23:52:26.761Z,71.67
2019-04-14T23:54:55.955Z,60.73
2019-04-14T23:57:24.908Z,68.50
2019-04-14T23:59:54.237Z,65.33
